Time;durP1;ratioP1;P1;durP2;ratioP2;P2;SDS_P1;SDS_P2;PMS_P1;PMS_P2;Temp;Humidity;BMP_temperature;BMP_pressure;BME280_temperature;BME280_humidity;BME280_pressure;Samples;Min_cycle;Max_cycle;Signal;HPM_P1;HPM_P2
2023/05/16 00:00:57;;;;;;;24.45;4.25;;;;;;;8.80;94.38;102068.06;5072435;28;20020;-69
2023/05/16 00:03:23;;;;;;;14.73;3.30;;;;;;;8.79;94.73;102069.06;5069709;28;20028;-69
2023/05/16 00:05:49;;;;;;;29.08;2.88;;;;;;;8.75;95.14;102068.50;5060058;28;20027;-69
2023/05/16 00:08:15;;;;;;;21.17;3.47;;;;;;;8.78;94.90;102068.22;5064583;28;20557;-69
2023/05/16 00:10:40;;;;;;;23.53;3.60;;;;;;;8.81;94.14;102067.88;5058502;28;20025;-68
2023/05/16 00:13:06;;;;;;;23.60;3.27;;;;;;;8.78;94.22;102070.94;5077254;28;20100;-69
2023/05/16 00:15:32;;;;;;;24.03;4.17;;;;;;;8.78;93.92;102075.53;5056337;28;20039;-69
2023/05/16 00:17:58;;;;;;;27.30;3.47;;;;;;;8.74;93.83;102080.47;5057289;28;20025;-69
2023/05/16 00:20:27;;;;;;;29.00;3.88;;;;;;;8.73;93.75;102076.03;5064951;28;20500;-69
2023/05/16 00:22:53;;;;;;;26.52;3.50;;;;;;;8.70;93.78;102076.31;5055908;28;20041;-69
2023/05/16 00:25:19;;;;;;;16.10;2.95;;;;;;;8.65;93.85;102073.19;5076394;28;20029;-69
2023/05/16 00:27:45;;;;;;;25.95;2.90;;;;;;;8.64;94.26;102074.22;5079498;28;20040;-69
2023/05/16 00:30:11;;;;;;;35.10;4.87;;;;;;;8.61;94.29;102074.53;5078178;28;20383;-68
2023/05/16 00:32:37;;;;;;;23.73;3.90;;;;;;;8.64;94.05;102076.09;5057757;28;20040;-69
2023/05/16 00:35:03;;;;;;;24.38;4.22;;;;;;;8.61;94.11;102077.25;5081743;28;20028;-68
2023/05/16 00:37:28;;;;;;;15.20;2.83;;;;;;;8.62;93.95;102069.91;5073654;28;20506;-68
2023/05/16 00:39:54;;;;;;;20.95;3.20;;;;;;;8.55;94.58;102071.56;5078977;28;20028;-69
2023/05/16 00:42:20;;;;;;;20.60;3.45;;;;;;;8.57;94.16;102069.50;5081932;28;20074;-69
2023/05/16 00:44:46;;;;;;;34.33;3.28;;;;;;;8.56;94.38;102078.72;5062498;28;20039;-69
2023/05/16 00:47:12;;;;;;;20.42;3.15;;;;;;;8.54;94.91;102076.16;5060841;28;20028;-69
2023/05/16 00:49:38;;;;;;;23.67;3.40;;;;;;;8.55;94.27;102079.75;5064416;28;20428;-69
2023/05/16 00:52:03;;;;;;;16.23;2.60;;;;;;;8.57;94.06;102081.31;5075047;28;20032;-69
2023/05/16 00:54:30;;;;;;;25.42;3.83;;;;;;;8.56;93.87;102078.72;5079507;28;20059;-69
2023/05/16 00:56:56;;;;;;;23.88;3.78;;;;;;;8.55;93.91;102077.00;5057955;28;20077;-68
2023/05/16 00:59:23;;;;;;;17.65;2.78;;;;;;;8.44;94.93;102071.78;5060058;28;20584;-68
2023/05/16 01:01:49;;;;;;;20.38;2.78;;;;;;;8.50;94.44;102082.91;5078087;28;20028;-69
2023/05/16 01:04:16;;;;;;;25.17;3.55;;;;;;;8.45;94.96;102082.56;5075557;28;20036;-69
2023/05/16 01:06:42;;;;;;;17.08;2.88;;;;;;;8.34;95.34;102073.69;5060246;28;20123;-69
2023/05/16 01:09:08;;;;;;;18.67;3.97;;;;;;;8.37;95.83;102073.38;5082350;28;20469;-69
2023/05/16 01:11:55;;;;;;;19.20;2.60;;;;;;;8.43;95.11;102070.91;5064562;28;20128;-69
2023/05/16 01:14:39;;;;;;;25.02;3.40;;;;;;;8.40;94.88;102079.41;5075006;28;20406;-68
2023/05/16 01:17:19;;;;;;;22.33;4.40;;;;;;;8.27;95.46;102076.16;5055486;28;20118;-69
2023/05/16 01:20:05;;;;;;;23.70;2.78;;;;;;;8.23;95.46;102080.22;5081323;28;20570;-69
2023/05/16 01:23:01;;;;;;;19.95;3.13;;;;;;;8.20;95.43;102080.53;5074540;28;20024;-69
2023/05/16 01:26:04;;;;;;;24.50;3.75;;;;;;;8.27;94.91;102081.63;5021904;28;20193;-69
2023/05/16 01:28:31;;;;;;;23.52;3.15;;;;;;;8.23;95.08;102076.66;5077312;28;20012;-69
2023/05/16 01:30:59;;;;;;;21.58;3.38;;;;;;;8.20;95.32;102076.94;5063496;28;20043;-69
2023/05/16 01:33:25;;;;;;;17.77;2.38;;;;;;;8.12;95.41;102074.09;5080743;28;20154;-70
2023/05/16 01:35:59;;;;;;;21.10;2.67;;;;;;;8.08;95.99;102075.38;5060162;28;20042;-69
2023/05/16 01:38:29;;;;;;;17.88;3.40;;;;;;;8.01;95.66;102074.28;5082552;28;20086;-69
2023/05/16 01:41:20;;;;;;;14.90;2.65;;;;;;;8.00;95.72;102075.31;5083740;28;20502;-69
2023/05/16 01:43:50;;;;;;;17.52;3.67;;;;;;;7.96;96.26;102071.16;5083913;28;20025;-69
2023/05/16 01:46:20;;;;;;;21.98;2.92;;;;;;;7.93;95.99;102077.75;5074176;28;20042;-69
2023/05/16 01:48:54;;;;;;;27.98;3.38;;;;;;;7.91;96.36;102079.75;5075781;28;20032;-69
2023/05/16 01:51:26;;;;;;;23.45;3.20;;;;;;;7.86;95.69;102078.50;5082090;28;20040;-68
2023/05/16 01:53:57;;;;;;;18.88;2.90;;;;;;;7.82;97.02;102077.94;5079904;28;20524;-69
2023/05/16 01:56:25;;;;;;;24.75;3.88;;;;;;;7.85;96.72;102082.25;5077163;28;20107;-69
2023/05/16 01:58:52;;;;;;;23.73;3.83;;;;;;;7.86;96.88;102082.06;5063434;28;20484;-69
2023/05/16 02:01:17;;;;;;;;;;;;;;;7.80;96.62;102087.28;5064192;28;20028;-70
2023/05/16 02:03:43;;;;;;;24.05;4.25;;;;;;;7.75;97.98;102086.88;5066138;28;20405;-70
2023/05/16 02:06:08;;;;;;;16.03;2.53;;;;;;;7.71;97.85;102089.03;5064862;28;20452;-69
2023/05/16 02:08:34;;;;;;;12.95;2.65;;;;;;;7.65;97.59;102091.50;5077009;28;20078;-69
2023/05/16 02:10:59;;;;;;;23.63;3.30;;;;;;;7.64;98.39;102092.50;5063293;28;20417;-73
2023/05/16 02:13:25;;;;;;;22.92;2.90;;;;;;;7.57;99.07;102097.69;5069697;28;20119;-73
2023/05/16 02:15:50;;;;;;;20.27;4.15;;;;;;;7.54;99.05;102094.41;5076223;28;20045;-73
2023/05/16 02:18:17;;;;;;;18.67;4.47;;;;;;;7.50;98.97;102093.84;5081611;28;20020;-73
2023/05/16 02:20:42;;;;;;;;;;;;;;;7.44;100.00;102099.00;5082431;28;20058;-73
2023/05/16 02:23:08;;;;;;;16.02;3.10;;;;;;;7.44;100.00;102097.16;5082455;28;19952;-69
2023/05/16 02:25:33;;;;;;;18.05;3.38;;;;;;;7.42;99.90;102104.59;5073629;28;20074;-69
2023/05/16 02:28:00;;;;;;;19.60;3.30;;;;;;;7.46;99.40;102103.31;5081814;28;20021;-70
2023/05/16 02:30:25;;;;;;;24.05;4.05;;;;;;;7.42;99.79;102106.50;5080964;28;20506;-69
2023/05/16 02:32:52;;;;;;;18.67;3.90;;;;;;;7.43;99.84;102108.19;5081672;28;20028;-69
2023/05/16 02:35:17;;;;;;;;;;;;;;;7.42;100.00;102111.94;5080599;28;20020;-71
2023/05/16 02:37:43;;;;;;;24.63;3.22;;;;;;;7.43;100.00;102109.03;5082361;28;19908;-70
2023/05/16 02:40:09;;;;;;;26.80;2.97;;;;;;;7.40;100.00;102113.94;5080087;28;20064;-70
2023/05/16 02:42:35;;;;;;;26.08;3.15;;;;;;;7.37;100.00;102119.69;5046861;28;20519;-71
2023/05/16 02:45:00;;;;;;;17.52;2.63;;;;;;;7.39;100.00;102106.75;5077733;28;20029;-70
2023/05/16 02:47:25;;;;;;;19.58;2.95;;;;;;;7.40;100.00;102112.09;5056682;28;20032;-70
2023/05/16 02:49:51;;;;;;;12.88;2.80;;;;;;;7.37;100.00;102116.97;5063367;28;20032;-70
2023/05/16 02:52:17;;;;;;;22.80;4.72;;;;;;;7.33;100.00;102123.72;5077316;28;20034;-70
2023/05/16 02:54:43;;;;;;;21.13;2.97;;;;;;;7.32;100.00;102125.56;5076242;28;20059;-70
2023/05/16 02:57:09;;;;;;;13.60;2.75;;;;;;;7.27;100.00;102127.00;5078893;28;20404;-70
2023/05/16 02:59:35;;;;;;;16.73;2.63;;;;;;;7.28;100.00;102123.28;5075071;28;20033;-70
2023/05/16 03:02:01;;;;;;;24.97;3.50;;;;;;;7.22;100.00;102137.50;5079011;28;20032;-71
2023/05/16 03:04:26;;;;;;;17.10;3.13;;;;;;;7.20;100.00;102134.91;5080179;28;20285;-70
2023/05/16 03:06:51;;;;;;;15.20;2.97;;;;;;;7.10;100.00;102127.75;5080096;28;20810;-70
2023/05/16 03:09:17;;;;;;;22.63;3.50;;;;;;;7.07;100.00;102125.28;5079185;28;20103;-71
2023/05/16 03:11:43;;;;;;;17.37;3.23;;;;;;;7.07;100.00;102131.63;5081713;28;20055;-71
2023/05/16 03:14:08;;;;;;;18.40;3.47;;;;;;;7.05;100.00;102130.88;5079023;28;20692;-70
2023/05/16 03:16:37;;;;;;;19.13;4.63;;;;;;;6.99;100.00;102128.72;5071631;28;20030;-70
2023/05/16 03:19:03;;;;;;;13.85;2.97;;;;;;;6.94;100.00;102127.47;5083862;28;20533;-70
2023/05/16 03:21:28;;;;;;;16.40;3.22;;;;;;;6.97;100.00;102132.59;5079060;28;20060;-70
2023/05/16 03:23:54;;;;;;;21.70;2.55;;;;;;;6.96;100.00;102133.63;5083722;28;20129;-70
2023/05/16 03:26:20;;;;;;;22.65;2.97;;;;;;;6.90;100.00;102128.75;5078571;28;20025;-69
2023/05/16 03:28:45;;;;;;;16.15;3.42;;;;;;;6.98;100.00;102131.59;5075992;28;20024;-69
2023/05/16 03:31:11;;;;;;;25.08;3.65;;;;;;;6.96;100.00;102131.75;5053934;28;20082;-69
2023/05/16 03:33:36;;;;;;;17.65;2.22;;;;;;;7.06;100.00;102129.03;5080322;28;20037;-69
2023/05/16 03:36:02;;;;;;;20.63;3.28;;;;;;;7.03;100.00;102132.91;5084089;28;20023;-69
2023/05/16 03:38:28;;;;;;;12.30;3.25;;;;;;;7.00;100.00;102137.78;5057649;28;20036;-70
2023/05/16 03:40:53;;;;;;;25.52;3.45;;;;;;;7.03;100.00;102135.63;5065380;28;20031;-69
2023/05/16 03:43:19;;;;;;;19.95;2.72;;;;;;;7.03;100.00;102140.19;5077014;28;20028;-70
2023/05/16 03:45:44;;;;;;;12.93;3.40;;;;;;;7.03;100.00;102149.25;5043238;28;20123;-69
2023/05/16 03:48:10;;;;;;;14.60;2.90;;;;;;;7.02;100.00;102141.22;5078459;28;20025;-69
2023/05/16 03:50:36;;;;;;;20.63;3.00;;;;;;;7.03;100.00;102149.25;5060084;28;20078;-69
2023/05/16 03:53:02;;;;;;;11.87;2.63;;;;;;;7.03;100.00;102145.66;5051683;28;20563;-69
2023/05/16 03:55:29;;;;;;;10.68;2.85;;;;;;;7.07;100.00;102152.53;5080271;28;20028;-70
2023/05/16 03:57:55;;;;;;;18.55;3.75;;;;;;;7.16;100.00;102149.81;5059730;28;20381;-70
2023/05/16 04:00:20;;;;;;;15.90;3.17;;;;;;;7.20;100.00;102153.13;5075042;28;21743;-70
2023/05/16 04:02:46;;;;;;;19.08;2.60;;;;;;;7.29;100.00;102157.69;5073142;28;20118;-70
2023/05/16 04:05:12;;;;;;;16.15;3.00;;;;;;;7.38;100.00;102160.41;5057471;28;20032;-70
2023/05/16 04:07:38;;;;;;;20.27;2.70;;;;;;;7.39;100.00;102151.25;5078391;28;20107;-69
2023/05/16 04:10:08;;;;;;;15.95;3.17;;;;;;;7.34;100.00;102159.00;5078774;28;20042;-70
2023/05/16 04:12:33;;;;;;;15.63;3.63;;;;;;;7.28;100.00;102158.72;5080411;28;20024;-70
2023/05/16 04:14:58;;;;;;;26.02;3.58;;;;;;;7.19;100.00;102154.09;5080217;28;20379;-69
2023/05/16 04:17:24;;;;;;;18.48;3.30;;;;;;;7.14;100.00;102159.13;5072756;28;20662;-70
2023/05/16 04:19:50;;;;;;;16.35;3.15;;;;;;;7.24;100.00;102160.88;5058681;28;20035;-70
2023/05/16 04:22:15;;;;;;;13.55;2.58;;;;;;;7.31;100.00;102163.88;5062473;28;20024;-70
2023/05/16 04:24:41;;;;;;;15.77;3.40;;;;;;;7.35;100.00;102165.28;5080261;28;20081;-70
2023/05/16 04:27:09;;;;;;;15.05;2.70;;;;;;;7.33;100.00;102157.28;5062292;28;20033;-70
2023/05/16 04:29:35;;;;;;;25.80;3.78;;;;;;;7.40;100.00;102166.59;5073461;28;20036;-70
2023/05/16 04:32:01;;;;;;;22.85;3.17;;;;;;;7.43;100.00;102170.91;5061461;28;20063;-70
2023/05/16 04:34:26;;;;;;;16.63;3.08;;;;;;;7.48;100.00;102163.16;5054801;28;20133;-69
2023/05/16 04:36:55;;;;;;;24.00;3.38;;;;;;;7.56;100.00;102166.88;5078363;28;20036;-70
2023/05/16 04:39:21;;;;;;;13.20;2.17;;;;;;;7.67;100.00;102171.28;5061406;28;20032;-70
2023/05/16 04:41:49;;;;;;;22.73;3.03;;;;;;;7.75;100.00;102177.72;5079234;28;20051;-70
2023/05/16 04:44:15;;;;;;;16.60;3.05;;;;;;;7.81;100.00;102177.16;5073550;28;20033;-70
2023/05/16 04:46:40;;;;;;;17.40;2.78;;;;;;;7.96;100.00;102181.13;5082506;28;20035;-70
2023/05/16 04:49:06;;;;;;;19.30;3.53;;;;;;;8.10;98.03;102188.84;5058458;28;20428;-69
2023/05/16 04:51:32;;;;;;;16.98;2.88;;;;;;;8.09;97.93;102180.78;5074072;28;20032;-69
2023/05/16 04:53:58;;;;;;;18.30;3.35;;;;;;;8.05;98.26;102180.25;5071496;28;20020;-70
2023/05/16 04:56:23;;;;;;;16.77;3.13;;;;;;;8.04;97.83;102185.84;5077923;28;20498;-69
2023/05/16 04:58:49;;;;;;;20.40;2.43;;;;;;;8.09;97.69;102188.97;5075372;28;20024;-69
2023/05/16 05:01:15;;;;;;;20.50;2.78;;;;;;;8.12;98.11;102188.69;5075161;28;20024;-71
2023/05/16 05:03:40;;;;;;;12.82;3.90;;;;;;;8.18;97.55;102188.94;5041998;28;20021;-70
2023/05/16 05:06:06;;;;;;;23.40;2.58;;;;;;;8.25;96.77;102191.97;5077896;28;20074;-69
2023/05/16 05:08:31;;;;;;;11.98;2.13;;;;;;;8.27;97.12;102199.00;5056643;28;20113;-70
2023/05/16 05:10:57;;;;;;;13.70;3.00;;;;;;;8.32;96.63;102193.97;5059734;28;20503;-70
2023/05/16 05:13:23;;;;;;;25.15;2.83;;;;;;;8.42;96.46;102191.19;5075870;28;20115;-70
2023/05/16 05:15:49;;;;;;;19.60;2.57;;;;;;;8.51;94.38;102195.75;5056617;28;20041;-70
2023/05/16 05:18:15;;;;;;;16.58;2.53;;;;;;;8.62;94.89;102192.81;5073344;28;20032;-70
2023/05/16 05:20:40;;;;;;;13.80;2.60;;;;;;;8.71;94.30;102198.22;5073877;28;20032;-70
2023/05/16 05:23:06;;;;;;;13.55;2.30;;;;;;;9.01;93.75;102197.88;5076207;28;20099;-71
2023/05/16 05:25:32;;;;;;;25.53;4.03;;;;;;;10.01;89.21;102194.69;5068596;28;20036;-70
2023/05/16 05:27:58;;;;;;;14.32;2.95;;;;;;;10.04;88.25;102199.03;5073913;28;20024;-69
2023/05/16 05:30:23;;;;;;;16.90;2.97;;;;;;;10.27;87.02;102191.97;5076335;28;20036;-69
2023/05/16 05:32:48;;;;;;;17.33;3.13;;;;;;;10.33;85.43;102205.88;5056105;28;20576;-70
2023/05/16 05:35:14;;;;;;;16.65;3.53;;;;;;;10.46;86.14;102200.81;5075946;28;20479;-70
2023/05/16 05:37:40;;;;;;;13.40;3.07;;;;;;;10.42;85.00;102204.88;5076104;28;20024;-70
2023/05/16 05:40:06;;;;;;;9.97;2.10;;;;;;;10.53;85.75;102211.97;5057000;28;20031;-70
2023/05/16 05:42:31;;;;;;;19.67;2.85;;;;;;;10.33;84.81;102207.75;5073627;28;20526;-71
2023/05/16 05:44:57;;;;;;;18.57;3.07;;;;;;;10.34;84.35;102210.34;5070710;28;20048;-70
2023/05/16 05:47:22;;;;;;;11.67;2.10;;;;;;;10.52;83.08;102213.00;5081007;28;20024;-70
2023/05/16 05:49:48;;;;;;;19.90;2.43;;;;;;;11.23;80.14;102208.81;5051977;28;20031;-70
2023/05/16 05:52:14;;;;;;;15.70;2.22;;;;;;;12.41;76.27;102211.72;5075961;28;20028;-70
2023/05/16 05:54:39;;;;;;;11.10;2.97;;;;;;;12.44;73.98;102222.34;5055531;28;20028;-70
2023/05/16 05:57:05;;;;;;;14.33;2.80;;;;;;;12.55;72.71;102216.47;5079623;28;20089;-70
2023/05/16 05:59:30;;;;;;;13.77;2.77;;;;;;;13.18;71.63;102219.16;5075529;28;20032;-70
2023/05/16 06:01:56;;;;;;;11.63;3.03;;;;;;;14.04;70.24;102215.06;5076616;28;20064;-71
2023/05/16 06:04:22;;;;;;;11.87;2.03;;;;;;;13.57;67.67;102220.81;5080126;28;20428;-70
2023/05/16 06:06:47;;;;;;;7.80;1.90;;;;;;;13.91;67.42;102223.09;5060564;28;20272;-70
2023/05/16 06:09:13;;;;;;;13.27;2.27;;;;;;;14.02;66.76;102225.41;5068060;28;20025;-70
2023/05/16 06:11:40;;;;;;;12.15;2.58;;;;;;;13.32;68.21;102222.00;5081380;28;20024;-71
2023/05/16 06:14:05;;;;;;;14.43;2.85;;;;;;;14.44;65.20;102220.19;5080633;28;20035;-70
2023/05/16 06:16:30;;;;;;;12.67;2.63;;;;;;;14.80;63.98;102233.06;5058916;28;20757;-71
2023/05/16 06:18:56;;;;;;;14.03;2.40;;;;;;;14.47;62.86;102230.84;5082315;28;20070;-70
2023/05/16 06:21:22;;;;;;;7.80;1.80;;;;;;;15.12;64.49;102231.78;5084650;28;20447;-70
2023/05/16 06:23:47;;;;;;;10.57;2.40;;;;;;;15.99;60.18;102242.53;5063404;28;20097;-70
2023/05/16 06:26:12;;;;;;;8.30;2.67;;;;;;;15.67;58.87;102243.06;5082190;28;20099;-70
2023/05/16 06:28:38;;;;;;;11.63;2.43;;;;;;;16.18;57.89;102236.34;5082244;28;20085;-71
2023/05/16 06:31:03;;;;;;;12.27;2.63;;;;;;;16.85;58.84;102237.50;5084310;28;20103;-71
2023/05/16 06:33:29;;;;;;;9.83;2.37;;;;;;;15.47;59.61;102230.97;5080748;28;20116;-70
2023/05/16 06:35:54;;;;;;;12.37;2.17;;;;;;;14.57;61.24;102236.97;5060350;28;20068;-70
2023/05/16 06:38:20;;;;;;;8.17;1.70;;;;;;;14.70;61.15;102240.75;5076193;28;20012;-70
2023/05/16 06:40:45;;;;;;;11.37;1.47;;;;;;;13.76;64.32;102241.50;5078149;28;20084;-70
2023/05/16 06:43:10;;;;;;;9.67;1.97;;;;;;;13.23;66.90;102242.34;5063727;28;20823;-70
2023/05/16 06:45:36;;;;;;;11.57;2.10;;;;;;;12.94;68.37;102233.88;5076775;28;20036;-70
2023/05/16 06:48:02;;;;;;;15.33;2.37;;;;;;;12.50;70.10;102243.63;5079802;28;20502;-69
2023/05/16 06:50:27;;;;;;;19.30;2.53;;;;;;;12.08;71.85;102243.03;5057516;28;20031;-70
2023/05/16 06:52:53;;;;;;;12.27;2.17;;;;;;;11.92;73.71;102250.41;5082595;28;20040;-69
2023/05/16 06:55:18;;;;;;;15.13;2.57;;;;;;;12.70;71.45;102249.63;5077124;28;20021;-69
2023/05/16 06:57:43;;;;;;;8.97;2.40;;;;;;;13.23;69.20;102250.59;5078359;28;20495;-69
2023/05/16 07:00:09;;;;;;;10.67;1.83;;;;;;;13.52;67.20;102253.53;5080822;28;20050;-71
2023/05/16 07:02:35;;;;;;;10.43;1.87;;;;;;;15.01;67.28;102260.75;5075826;28;20486;-70
2023/05/16 07:05:00;;;;;;;16.17;1.93;;;;;;;15.56;61.56;102257.41;5082171;28;20101;-70
2023/05/16 07:07:26;;;;;;;11.03;2.17;;;;;;;15.93;59.63;102255.28;5082649;28;20094;-70
2023/05/16 07:09:51;;;;;;;9.67;3.07;;;;;;;16.26;58.33;102261.06;5080209;28;20060;-70
2023/05/16 07:12:17;;;;;;;12.33;2.37;;;;;;;14.96;60.53;102254.94;5082339;28;20518;-70
2023/05/16 07:14:42;;;;;;;11.10;1.80;;;;;;;14.67;61.52;102254.09;5075946;28;20015;-69
2023/05/16 07:17:08;;;;;;;6.73;1.60;;;;;;;14.54;60.58;102262.13;5075927;28;20024;-70
2023/05/16 07:19:33;;;;;;;8.85;2.10;;;;;;;13.58;62.14;102261.06;5081795;28;20020;-71
2023/05/16 07:21:59;;;;;;;10.97;1.57;;;;;;;13.37;63.83;102262.72;5064707;28;20029;-70
2023/05/16 07:24:24;;;;;;;8.27;1.83;;;;;;;13.45;64.59;102270.97;5081758;28;20039;-70
2023/05/16 07:26:50;;;;;;;13.03;1.50;;;;;;;14.76;62.05;102275.00;5065785;28;20396;-70
2023/05/16 07:29:16;;;;;;;9.37;1.43;;;;;;;14.79;59.81;102263.59;5079530;28;20028;-70
2023/05/16 07:31:41;;;;;;;11.23;2.27;;;;;;;14.15;59.65;102272.50;5077863;28;20064;-70
2023/05/16 07:34:06;;;;;;;7.40;1.63;;;;;;;14.19;60.50;102271.09;5069642;28;20067;-70
2023/05/16 07:36:33;;;;;;;8.97;1.60;;;;;;;14.84;58.83;102267.47;5077056;28;20025;-71
2023/05/16 07:38:58;;;;;;;11.18;2.00;;;;;;;14.19;60.63;102268.34;5075076;28;20024;-70
2023/05/16 07:41:24;;;;;;;8.03;1.77;;;;;;;13.40;61.66;102267.88;5050966;28;20036;-70
2023/05/16 07:43:50;;;;;;;11.57;2.07;;;;;;;13.56;63.88;102267.78;5063191;28;20059;-71
2023/05/16 07:46:15;;;;;;;7.00;1.53;;;;;;;13.02;64.52;102279.78;5068355;28;20056;-69
2023/05/16 07:48:40;;;;;;;10.97;2.20;;;;;;;13.67;63.54;102265.44;5075013;28;20473;-70
2023/05/16 07:51:06;;;;;;;6.83;2.40;;;;;;;13.67;63.60;102270.97;5075788;28;20038;-70
2023/05/16 07:53:31;;;;;;;6.90;2.03;;;;;;;14.26;62.87;102266.56;5077221;28;20519;-71
2023/05/16 07:55:57;;;;;;;7.40;1.37;;;;;;;14.85;60.04;102266.47;5061351;28;20121;-70
2023/05/16 07:58:22;;;;;;;11.40;2.03;;;;;;;14.79;59.08;102258.91;5053844;28;20029;-70
2023/05/16 08:00:48;;;;;;;7.67;1.60;;;;;;;15.05;58.25;102270.31;5071532;28;20020;-70
2023/05/16 08:03:13;;;;;;;7.93;1.53;;;;;;;14.72;57.57;102270.94;5062040;28;20024;-71
2023/05/16 08:05:39;;;;;;;8.33;2.03;;;;;;;14.21;57.13;102271.78;5065335;28;20039;-70
2023/05/16 08:08:05;;;;;;;16.00;1.60;;;;;;;14.40;57.94;102277.63;5058168;28;20098;-70
2023/05/16 08:10:30;;;;;;;9.70;1.83;;;;;;;14.23;58.33;102273.31;5058937;28;20069;-71
2023/05/16 08:12:56;;;;;;;6.73;1.43;;;;;;;14.37;59.65;102277.13;5079514;28;20384;-70
2023/05/16 08:15:21;;;;;;;12.93;1.70;;;;;;;14.11;59.18;102277.53;5078470;28;20028;-71
2023/05/16 08:17:46;;;;;;;9.17;1.70;;;;;;;14.90;58.11;102276.91;5076362;28;20479;-70
2023/05/16 08:20:12;;;;;;;5.50;1.63;;;;;;;14.72;57.88;102277.28;5073788;28;20103;-71
2023/05/16 08:22:37;;;;;;;10.07;2.53;;;;;;;14.04;59.63;102292.22;5072260;28;20025;-70
2023/05/16 08:25:04;;;;;;;6.90;1.40;;;;;;;13.69;59.97;102288.19;5046517;28;20024;-70
2023/05/16 08:27:31;;;;;;;8.45;1.52;;;;;;;13.84;60.53;102289.09;5070788;28;20035;-71
2023/05/16 08:29:57;;;;;;;9.48;2.08;;;;;;;14.39;60.74;102286.94;5076081;28;20103;-70
2023/05/16 08:32:22;;;;;;;6.83;1.40;;;;;;;14.74;58.01;102272.41;5071424;28;20114;-70
2023/05/16 08:34:47;;;;;;;9.90;1.90;;;;;;;14.82;56.73;102282.50;5075476;28;20047;-70
2023/05/16 08:37:14;;;;;;;6.15;2.00;;;;;;;14.73;54.91;102280.91;5058207;28;20052;-70
2023/05/16 08:39:40;;;;;;;3.73;1.83;;;;;;;15.16;54.91;102286.41;5076703;28;20082;-70
2023/05/16 08:42:06;;;;;;;10.17;1.57;;;;;;;15.84;54.47;102283.25;5076345;28;20081;-71
2023/05/16 08:44:31;;;;;;;7.17;1.50;;;;;;;16.14;53.40;102299.50;5059952;28;20115;-71
2023/05/16 08:47:08;;;;;;;8.70;1.63;;;;;;;15.14;52.99;102288.50;5078188;28;20107;-69
2023/05/16 08:49:35;;;;;;;4.57;1.45;;;;;;;15.17;50.75;102301.06;5080174;28;20538;-69
2023/05/16 08:52:06;;;;;;;9.38;1.48;;;;;;;14.98;52.45;102287.84;5059450;28;20479;-69
2023/05/16 08:54:33;;;;;;;7.97;1.92;;;;;;;15.09;53.49;102282.69;5072229;28;20024;-70
2023/05/16 08:57:00;;;;;;;8.85;1.80;;;;;;;15.83;50.53;102287.03;5079223;28;20102;-69
2023/05/16 08:59:26;;;;;;;6.35;1.48;;;;;;;15.21;53.25;102288.59;5061495;28;20524;-70
2023/05/16 09:01:51;;;;;;;7.03;1.70;;;;;;;15.12;54.12;102287.84;5060296;28;20112;-70
2023/05/16 09:04:18;;;;;;;6.07;1.77;;;;;;;15.41;52.89;102295.25;5077078;28;20375;-69
2023/05/16 09:06:44;;;;;;;6.80;1.20;;;;;;;15.27;51.03;102293.34;5058819;28;20033;-70
2023/05/16 09:09:11;;;;;;;6.78;1.65;;;;;;;14.98;53.02;102287.84;5077817;28;20115;-69
2023/05/16 09:11:37;;;;;;;8.27;1.77;;;;;;;14.82;52.24;102297.16;5057061;28;20040;-70
2023/05/16 09:14:04;;;;;;;8.43;1.35;;;;;;;14.38;54.53;102293.50;5081209;28;20043;-70
2023/05/16 09:16:30;;;;;;;8.02;2.00;;;;;;;15.57;52.81;102284.84;5053245;28;20108;-69
2023/05/16 09:18:58;;;;;;;7.50;1.80;;;;;;;15.55;52.16;102288.84;5067469;28;20502;-69
2023/05/16 09:21:30;;;;;;;13.57;1.70;;;;;;;14.90;52.95;102287.94;5048485;28;20035;-70
2023/05/16 09:24:01;;;;;;;7.53;1.58;;;;;;;14.69;54.50;102291.47;5074935;28;20035;-71
2023/05/16 09:26:27;;;;;;;6.30;1.55;;;;;;;14.88;52.26;102298.34;5057079;28;20032;-70
2023/05/16 09:28:54;;;;;;;5.87;1.50;;;;;;;15.18;52.19;102309.16;5075583;28;20095;-70
2023/05/16 09:31:21;;;;;;;5.18;1.48;;;;;;;16.14;50.75;102301.38;5065046;28;20111;-70
2023/05/16 09:33:48;;;;;;;;;;;;;;;16.15;48.31;102309.50;5076559;28;20068;-70
2023/05/16 09:36:14;;;;;;;6.13;1.40;;;;;;;16.10;48.33;102311.13;5054663;28;19945;-69
2023/05/16 09:38:39;;;;;;;7.25;1.67;;;;;;;16.14;51.34;102312.44;5070465;28;20031;-70
2023/05/16 09:41:05;;;;;;;6.37;1.40;;;;;;;15.91;50.21;102311.78;5063420;28;20033;-70
2023/05/16 09:43:30;;;;;;;4.53;1.30;;;;;;;16.22;46.71;102306.81;5083644;28;20047;-70
2023/05/16 09:45:58;;;;;;;6.07;1.27;;;;;;;15.72;47.37;102313.28;5082262;28;20028;-71
2023/05/16 09:48:27;;;;;;;5.32;1.17;;;;;;;15.50;51.53;102302.38;5081941;28;20066;-71
2023/05/16 09:50:53;;;;;;;5.85;1.65;;;;;;;15.42;52.02;102313.56;5078732;28;20111;-69
2023/05/16 09:53:31;;;;;;;7.70;2.00;;;;;;;15.56;52.60;102318.16;5081312;28;20132;-69
2023/05/16 09:56:01;;;;;;;9.93;1.30;;;;;;;15.73;48.60;102312.22;5061902;28;20038;-70
2023/05/16 09:58:34;;;;;;;9.23;2.08;;;;;;;15.70;50.75;102309.84;5081128;28;20029;-70
2023/05/16 10:01:01;;;;;;;4.78;1.42;;;;;;;15.25;52.22;102310.09;5076667;28;20028;-69
2023/05/16 10:03:27;;;;;;;6.70;1.35;;;;;;;14.97;52.08;102316.47;5083637;28;20047;-71
2023/05/16 10:05:53;;;;;;;4.97;1.60;;;;;;;14.22;51.96;102312.94;5079852;28;20039;-71
2023/05/16 10:08:26;;;;;;;14.32;2.38;;;;;;;14.86;51.12;102311.44;5079201;28;20509;-71
2023/05/16 10:10:53;;;;;;;10.27;2.00;;;;;;;15.26;50.05;102310.97;5054812;28;20029;-72
2023/05/16 10:13:29;;;;;;;4.72;1.27;;;;;;;15.87;47.97;102314.09;5067730;28;20039;-69
2023/05/16 10:15:56;;;;;;;12.43;1.98;;;;;;;16.36;47.56;102308.59;5079090;28;20060;-70
2023/05/16 10:18:27;;;;;;;3.72;1.60;;;;;;;15.37;49.20;102321.56;5073388;28;20043;-70
2023/05/16 10:20:54;;;;;;;4.40;1.20;;;;;;;15.24;51.49;102307.53;5084149;28;20038;-71
2023/05/16 10:23:21;;;;;;;8.98;1.85;;;;;;;15.46;50.05;102307.44;5077928;28;20032;-70
2023/05/16 10:25:48;;;;;;;4.93;1.30;;;;;;;15.76;48.82;102314.63;5075271;28;20531;-70
2023/05/16 10:28:20;;;;;;;6.95;1.20;;;;;;;16.11;47.46;102312.88;5084583;28;20043;-70
2023/05/16 10:30:46;;;;;;;5.00;1.33;;;;;;;15.90;49.02;102299.03;5074707;28;20021;-70
2023/05/16 10:33:17;;;;;;;6.10;1.13;;;;;;;15.72;50.46;102318.81;5075679;28;20109;-70
2023/05/16 10:35:43;;;;;;;6.65;1.17;;;;;;;15.17;50.95;102304.69;5072311;28;20028;-70
2023/05/16 10:38:11;;;;;;;4.85;1.92;;;;;;;15.77;48.33;102312.69;5079781;28;20051;-70
2023/05/16 10:40:38;;;;;;;3.33;0.88;;;;;;;16.10;46.11;102308.34;5075393;28;20047;-70
2023/05/16 10:43:07;;;;;;;7.75;1.30;;;;;;;16.68;46.86;102302.53;5064671;28;20081;-70
2023/05/16 10:45:32;;;;;;;9.88;1.33;;;;;;;16.76;46.31;102294.09;5080276;28;20107;-71
2023/05/16 10:48:08;;;;;;;4.93;1.30;;;;;;;17.26;46.12;102300.16;5081080;28;20442;-70
2023/05/16 10:50:43;;;;;;;4.05;1.65;;;;;;;17.61;45.28;102300.97;5059726;28;20483;-71
2023/05/16 10:53:34;;;;;;;9.25;1.77;;;;;;;17.41;45.29;102302.78;5048751;28;20032;-70
2023/05/16 10:56:02;;;;;;;2.13;1.10;;;;;;;16.23;47.74;102316.81;5050644;28;20089;-71
2023/05/16 10:58:33;;;;;;;3.92;1.50;;;;;;;16.04;47.23;102306.38;5083032;28;20106;-70
2023/05/16 11:01:17;;;;;;;7.13;1.70;;;;;;;16.31;45.05;102308.34;5079097;28;20032;-70
2023/05/16 11:04:01;;;;;;;7.75;1.42;;;;;;;16.74;45.30;102305.34;5055827;28;20025;-70
2023/05/16 11:06:41;;;;;;;11.02;1.60;;;;;;;16.27;46.26;102307.06;5079615;28;20036;-69
2023/05/16 11:09:12;;;;;;;5.75;1.20;;;;;;;15.78;46.31;102311.63;5047611;28;20024;-69
2023/05/16 11:11:57;;;;;;;5.93;1.45;;;;;;;15.80;47.70;102320.59;5079335;28;20043;-69
2023/05/16 11:14:28;;;;;;;6.38;2.00;;;;;;;15.86;46.64;102314.28;5060638;28;20028;-69
2023/05/16 11:17:37;;;;;;;6.70;1.33;;;;;;;16.77;45.76;102298.56;5080079;28;20027;-70
2023/05/16 11:20:04;;;;;;;8.82;1.23;;;;;;;17.05;45.06;102302.13;4991964;28;20129;-70
2023/05/16 11:22:33;;;;;;;4.70;1.10;;;;;;;16.85;45.21;102312.22;5048653;28;20134;-69
2023/05/16 11:25:06;;;;;;;6.57;1.35;;;;;;;17.32;43.90;102307.63;5079699;28;20032;-70